Flight Track Log - Related Links

Times and Time Zones

All times are in EDT time to prevent confusion due to time zone crossing. See the EJA948 flight status page for this flight to view local times or setup timezone preferences in your user account.

Time Position Orientation Groundspeed Altitude Reporting Facility
EDT Latitude Longitude Course Direction KTS MPH feet Rate Location/Type
Sun 08:00:15 PM 37.6333 -122.4000 292° West 173 199 1,500  Level Northern Cal TRACON
Sun 08:02:02 PM 37.6761 -122.5314 292° West 267 307 8,200 3,964 Climbing Oakland Center
Sun 08:03:03 PM 37.6175 -122.5828 215° Southwest 282 325 12,600 2,902 Climbing Oakland Center
Sun 08:04:04 PM 37.5436 -122.5108 142° Southeast 361 415 14,100 1,756 Climbing Oakland Center
Sun 08:05:06 PM 37.4717 -122.4092 132° Southeast 389 448 16,200 1,902 Climbing Oakland Center
Sun 08:06:07 PM 37.3992 -122.3108 133° Southeast 386 444 18,000 1,918 Climbing Oakland Center
Sun 08:07:08 PM 37.3108 -122.1892 132° Southeast 394 453 20,100 1,902 Climbing Oakland Center
Sun 08:08:10 PM 37.2364 -122.0867 132° Southeast 398 458 21,900 1,756 Climbing Oakland Center
Sun 08:09:11 PM 37.1603 -121.9800 132° Southeast 407 468 23,700 1,721 Climbing Oakland Center
Sun 08:10:12 PM 37.0797 -121.8728 133° Southeast 420 483 25,400 1,328 Climbing Oakland Center
Sun 08:11:13 PM 36.9944 -121.7631 134° Southeast 445 512 26,400 780 Climbing Oakland Center
Sun 08:12:15 PM 36.9069 -121.6453 133° Southeast 460 529 27,000 293 Climbing Oakland Center
Sun 08:13:16 PM 36.8047 -121.5058 132° Southeast 479 551 27,000  Level Oakland Center
Sun 08:14:17 PM 36.7094 -121.3825 134° Southeast 492 566 27,000  Level Oakland Center
Sun 08:15:18 PM 36.6156 -121.2539 132° Southeast 500 575 27,000  Level Oakland Center
Sun 08:16:20 PM 36.5225 -121.1278 133° Southeast 496 571 27,000  Level Oakland Center
Sun 08:17:21 PM 36.4317 -121.0058 133° Southeast 487 560 27,000  Level Oakland Center
Sun 08:18:22 PM 36.3428 -120.8881 133° Southeast 469 540 27,000  Level Oakland Center
Sun 08:19:23 PM 36.2547 -120.7717 133° Southeast 464 534 27,000  Level Oakland Center
Sun 08:20:25 PM 36.1675 -120.6561 133° Southeast 460 529 27,000  Level Oakland Center
Sun 08:21:26 PM 36.0789 -120.5419 134° Southeast 460 529 27,000  Level Oakland Center
Sun 08:22:27 PM 35.9922 -120.4269 133° Southeast 449 517 27,000  Level Oakland Center
Sun 08:23:28 PM 35.9033 -120.3133 134° Southeast 454 522 27,000  Level Oakland Center
Sun 08:24:30 PM 35.7978 -120.1756 133° Southeast 458 527 27,000  Level Oakland Center
Sun 08:25:31 PM 35.7092 -120.0600 133° Southeast 459 528 27,000  Level Oakland Center
Sun 08:26:32 PM 35.6158 -119.9511 137° Southeast 458 527 27,000  Level Oakland Center
Sun 08:27:33 PM 35.5089 -119.8606 145° Southeast 460 529 27,000  Level Oakland Center
Sun 08:28:35 PM 35.4031 -119.7686 145° Southeast 462 532 27,000  Level Oakland Center
Sun 08:29:36 PM 35.2981 -119.6778 145° Southeast 460 529 27,000  Level Oakland Center
Sun 08:29:53 PM 35.2764 -119.6589 145° Southeast 460 529 27,000  Level Los Angeles Center
Sun 08:30:55 PM 35.1719 -119.5694 145° Southeast 459 528 27,000  Level Los Angeles Center
Sun 08:31:57 PM 35.0450 -119.4608 145° Southeast 462 532 27,000  Level Los Angeles Center
Sun 08:33:12 PM 34.9208 -119.3536 145° Southeast 457 526 27,000 -263 Level Los Angeles Center
Sun 08:34:14 PM 34.8144 -119.2639 145° Southeast 462 532 26,400 -1,500 Descending Los Angeles Center
Sun 08:35:16 PM 34.7044 -119.1708 145° Southeast 477 549 23,900 -2,565 Descending Los Angeles Center
Sun 08:36:18 PM 34.5819 -119.0700 146° Southeast 482 555 21,100 -2,468 Descending Los Angeles Center
Sun 08:37:20 PM 34.4817 -118.9853 145° Southeast 436 502 18,800 -2,129 Descending Los Angeles Center
Sun 08:38:22 PM 34.3942 -118.9131 146° Southeast 377 434 16,700 -1,897 Descending Los Angeles Center
Sun 08:39:36 PM 34.2872 -118.8553 156° South 356 410 14,500 -1,809 Descending Los Angeles Center
Sun 08:40:38 PM 34.1933 -118.8211 163° South 352 405 12,600 -1,742 Descending Los Angeles Center
Sun 08:41:40 PM 34.0897 -118.7839 163° South 320 368 10,900 -1,258 Descending Los Angeles Center
Sun 08:42:42 PM 34.0356 -118.7153 134° Southeast 290 334 10,000 -435 Descending Los Angeles Center
Sun 08:43:44 PM 34.0253 -118.6106 97° East 295 339 10,000 -677 Level Los Angeles Center
Sun 08:44:46 PM 34.0164 -118.5139 96° East 292 336 8,600 -1,452 Descending Los Angeles Center
Sun 08:45:48 PM 34.0103 -118.4275 95° East 282 325 7,000 -1,403 Descending Los Angeles Center
Sun 08:46:50 PM 34.0206 -118.3389 82° East 271 312 5,700 -1,161 Descending Los Angeles Center
Sun 08:47:52 PM 34.0261 -118.2592 85° East 247 284 4,600 -871 Descending Los Angeles Center
Sun 08:48:54 PM 34.0236 -118.1739 92° East 225 259 3,900 -683 Descending Los Angeles Center
Sun 08:49:55 PM 33.9847 -118.1986 208° Southwest 189 217 3,200 -537 Descending Los Angeles Center
Sun 08:50:57 PM 33.9706 -118.2536 253° West 175 201 2,800 -774 Descending Los Angeles Center
Sun 08:51:59 PM 33.9617 -118.3125 260° West 178 205 1,600 -871 Descending Los Angeles Center
Sun 08:53:01 PM 33.9581 -118.3567 264° West 150 173 1,000 -629 Descending Los Angeles Center
Sun 08:54:03 PM 33.9528 -118.3983 261° West 133 153 300 -677 Descending Los Angeles Center
Sun 08:56:00 PM 33.9333 -118.4000 228° Southwest  Level FlightAware Approximate

Login

Don't have an account? Register now (free) for customized features, flight alerts, and more!